Station: Dalby

  Atmospheric Gas Attenuation - ITU Rec 676-11   --------------- db/100km ---------------
Date Time Temp RH % AH g/m3 Dew Point Wind Direction Speed kph Gust kph Barometer mB Rainfall Since 9am 24GHz 47GHz 76GHz 122GHz 134GHz 241GHz
27 02:20 22.2 77 15.12 18 7 7 1008.8 0.8 33.0 33.9 61.7 163.0 173.5 601.9
27 02:10 22.4 76 15.09 18 7 7 1008.7 0.8 32.9 33.8 61.4 162.2 172.6 598.8
27 02:00 22.7 76 15.35 18.3 7 9 1008.8 0.8 33.4 34.2 62.3 164.6 175.7 609.6
27 01:50 22.7 76 15.35 18.3 11 11 1008.8 0.8 33.4 34.2 62.3 164.6 175.7 609.6
27 01:40 22.7 76 15.35 18.3 13 13 1008.7 0.8 33.4 34.1 62.3 164.6 175.7 609.5
27 01:30 23 74 15.21 18.1 7 9 1008.8 0.8 33.1 33.8 61.5 162.4 173.0 600.2
27 01:20 23.1 74 15.3 18.2 9 9 1008.9 0.8 33.3 33.9 61.8 163.2 174.1 603.9
27 01:10 23.2 73 15.18 18.1 7 7 1008.9 0.8 33.0 33.7 61.2 161.6 172.1 597.2
27 01:00 23.4 72 15.14 18.1 11 15 1009 0.8 32.9 33.5 60.8 160.7 171.1 593.7
27 00:50 23.7 71 15.19 18.1 15 17 1009.1 0.8 33.0 33.5 60.8 160.7 171.2 593.9
27 00:40 24.1 70 15.32 18.3 13 13 1009.2 0.8 33.3 33.6 61.1 161.4 172.1 597.3
27 00:30 24.5 69 15.44 18.4 19 24 1009.4 0.8 33.5 33.6 61.3 162.0 172.9 600.1
27 00:20 24.7 69 15.62 18.6 17 19 1009.5 0.8 33.8 33.9 61.9 163.6 175.0 607.5
27 00:10 25 68 15.65 18.7 19 20 1009.6 0.8 33.9 33.8 61.8 163.4 174.8 606.6
27 00:00 25.1 68 15.74 18.8 13 17 1009.6 0.8 34.1 33.9 62.1 164.2 175.8 610.3
26 23:50 25.3 67 15.69 18.7 15 15 1009.6 0.8 33.9 33.8 61.8 163.2 174.6 606.3
26 23:40 25.5 67 15.86 18.9 19 20 1009.6 0.8 34.3 34.0 62.3 164.7 176.6 613.0
26 23:30 25.4 67 15.77 18.8 15 20 1009.7 0.8 34.1 33.9 62.0 163.9 175.5 609.4
26 23:20 25.3 68 15.92 19 13 15 1010 0.8 34.4 34.2 62.8 165.9 177.9 617.7
26 23:10 25.6 67 15.95 19 17 19 1009.9 0.8 34.5 34.1 62.6 165.6 177.6 616.8
26 23:00 25.9 65 15.74 18.8 17 20 1009.9 0.8 34.0 33.6 61.5 162.5 174.0 604.1
26 22:50 26 64 15.58 18.7 20 22 1009.7 0.8 33.6 33.3 60.7 160.5 171.5 595.5
26 22:40 26.2 63 15.51 18.6 15 17 1009.9 0.8 33.5 33.1 60.3 159.3 170.1 590.7
26 22:30 26.4 62 15.43 18.5 19 24 1009.8 0.8 33.3 32.9 59.8 158.0 168.6 585.3
26 22:20 26.6 61 15.36 18.5 20 24 1009.7 0.8 33.1 32.7 59.3 156.8 167.2 580.4
26 22:10 26.7 59 14.93 18 22 24 1009.6 0.8 32.2 31.9 57.5 151.8 161.1 559.3
26 22:00 26.6 60 15.1 18.2 17 22 1009.8 0.8 32.6 32.3 58.3 153.9 163.6 568.1
26 21:50 26 65 15.82 18.9 15 17 1009.9 0.8 34.1 33.7 61.8 163.2 174.9 607.2
26 21:40 26 65 15.82 18.9 19 19 1009.7 0.8 34.1 33.7 61.8 163.2 174.9 607.1
26 21:30 25.8 66 15.89 19 20 26 1009.6 0.8 34.3 33.9 62.2 164.4 176.3 612.1
26 21:20 25.8 65 15.65 18.7 20 22 1009.7 0.8 33.8 33.5 61.2 161.7 173.0 600.4
26 21:10 25.6 66 15.71 18.8 19 20 1009.6 0.8 34.0 33.7 61.6 162.8 174.2 604.9
26 21:00 25.8 66 15.89 19 17 20 1009.6 0.8 34.3 33.9 62.2 164.4 176.3 612.1
26 20:50 25.7 66 15.8 18.9 17 19 1009.6 0.8 34.1 33.8 61.9 163.6 175.3 608.5
26 20:40 25.7 67 16.04 19.1 15 17 1009.5 0.8 34.6 34.2 62.9 166.3 178.6 620.2
26 20:30 25.4 69 16.24 19.3 13 17 1009.3 0.8 35.1 34.7 64.0 169.3 182.2 632.4
26 20:20 25.5 67 15.86 18.9 13 15 1009.2 0.8 34.3 34.0 62.3 164.6 176.5 612.8
26 20:10 25.7 65 15.56 18.6 17 19 1009.1 0.8 33.6 33.4 60.9 160.8 171.9 596.6
26 20:00 26 63 15.34 18.4 17 20 1009 0.8 33.1 32.9 59.7 157.7 168.1 583.6
26 19:50 26.4 62 15.43 18.5 17 19 1008.8 0.8 33.3 32.9 59.7 157.9 168.5 584.9
26 19:40 26.7 64 16.2 19.3 11 13 1008.7 0.8 34.9 34.0 62.8 165.9 178.4 619.7
26 19:30 26.5 66 16.52 19.6 9 11 1008.4 0.8 35.6 34.7 64.3 170.0 183.4 636.8
26 19:20 26.3 63 15.6 18.9 2 7 1008.3 0.8 33.7 33.2 60.5 159.9 171.0 593.6
26 19:10 26.3 65 16.09 19.2 7 9 1008.1 0.8 34.7 34.0 62.6 165.4 177.7 617.2
26 19:00 26 68 16.56 19.6 9 13 1007.8 0.8 35.7 34.9 64.8 171.4 185.1 642.7
26 18:50 26.1 65 15.91 19.2 11 13 1007.9 0.8 34.3 33.7 62.0 163.8 175.7 610.0
26 18:40 26.2 68 16.74 19.8 7 7 1007.9 0.8 36.1 35.2 65.5 173.1 187.2 650.0
26 18:30 25.7 70 16.76 19.8 9 13 1007.6 0.8 36.2 35.4 66.0 174.4 188.6 655.1
26 18:20 25.6 69 16.43 19.5 13 15 1007.5 0.8 35.5 34.8 64.6 170.8 184.1 639.4
26 18:10 26.1 65 15.91 19 17 19 1007.3 0.6 34.3 33.7 61.9 163.7 175.6 609.7
26 18:00 26.7 67 16.96 20.1 6 24 1007.1 0.6 36.5 35.3 66.0 174.4 188.9 656.3
26 17:50 27.6 58 15.43 18.6 2 6 1006.9 0.6 33.2 32.3 58.7 155.2 165.6 575.1
26 17:40 27.8 60 16.14 19.3 13 15 1006.6 0.4 34.7 33.4 61.5 162.6 174.8 607.1
26 17:30 28.2 52 14.3 17.4 24 30 1006.4 0.2 30.8 30.3 53.7 141.9 149.4 518.6
26 17:20 30.3 41 12.64 15.6 24 30 1006.2 0.2 27.2 27.0 46.1 121.6 125.0 433.7
26 17:10 32.5 31 10.75 13.2 15 19 1006.1 0 23.2 23.7 38.3 100.9 100.3 347.2
26 17:00 32.9 29 10.27 12.5 17 24 1005.9 0 22.1 23.0 36.6 96.2 94.5 327.3
26 16:50 33.9 29 10.83 13.4 15 22 1006 0 23.2 23.5 38.0 99.9 99.4 344.4
26 16:40 33.9 29 10.83 13.4 11 15 1005.9 0 23.2 23.5 37.9 99.9 99.4 344.4
26 16:30 34.3 29 11.06 13.7 6 13 1005.8 0 23.7 23.7 38.5 101.4 101.4 351.4
26 16:20 33.5 29 10.6 13.5 13 15 1005.9 0 22.8 23.3 37.4 98.4 97.4 337.3
26 16:10 33.4 30 10.91 13.5 7 9 1005.9 0 23.4 23.7 38.4 101.2 100.9 349.5
26 16:00 33.1 30 10.74 13.2 13 19 1005.8 0 23.1 23.5 38.0 100.1 99.4 344.3
26 15:50 33.8 30 11.14 13.8 17 20 1005.8 0 23.9 23.9 39.0 102.8 102.9 356.6
26 15:40 32.9 32 11.34 14 6 9 1005.9 0 24.4 24.4 40.1 105.7 106.2 368.3
26 15:30 33.2 31 11.16 13.8 9 15 1005.9 0 24.0 24.1 39.4 103.7 103.9 360.0
26 15:20 33 30 10.68 13.1 7 13 1006.1 0 23.0 23.5 37.9 99.7 98.9 342.5
26 15:10 33 32 11.4 14.1 11 13 1006.4 0 24.5 24.5 40.3 106.2 106.8 370.3
26 15:00 33.3 32 11.58 14.8 9 19 1006.4 0 24.8 24.7 40.8 107.4 108.4 376.0
26 14:50 32.8 33 11.63 14.4 13 15 1006.5 0 25.0 24.9 41.2 108.5 109.7 380.3
26 14:40 32.4 33 11.38 14.1 6 7 1006.7 0 24.5 24.6 40.5 106.8 107.4 372.3
26 14:30 32.7 34 11.92 14.8 9 20 1006.9 0 25.6 25.3 42.3 111.4 113.1 392.3
26 14:20 32.5 32 11.1 14.1 4 7 1007 0 23.9 24.2 39.6 104.2 104.2 361.0
26 14:10 32.4 33 11.38 14.5 19 20 1007.2 0 24.5 24.7 40.6 106.8 107.5 372.5
26 14:00 31.9 36 12.09 15 7 13 1007.4 0 26.0 25.8 43.3 114.1 116.3 403.2
26 13:50 31 37 11.84 14.6 11 13 1007.6 0 25.5 25.7 42.9 113.0 114.7 397.6
26 13:40 31.8 37 12.36 15.3 17 22 1007.8 0 26.5 26.2 44.3 116.8 119.6 414.8
26 13:30 31.6 37 12.23 15.5 9 17 1007.8 0 26.3 26.1 44.0 115.9 118.4 410.5
26 13:20 31.5 36 11.84 15 9 11 1008.1 0 25.5 25.6 42.6 112.4 114.0 395.3
26 13:10 31.4 38 12.43 15.4 11 15 1008.2 0 26.7 26.5 44.8 118.1 121.0 419.9
26 13:00 30.8 39 12.35 15.6 11 19 1008.3 0 26.6 26.5 44.8 118.2 121.0 419.7
26 12:50 30.4 40 12.4 15.3 9 15 1008.5 0 26.7 26.7 45.3 119.3 122.2 423.9
26 12:40 30.1 42 12.81 15.8 9 11 1008.6 0 27.6 27.4 46.9 123.8 127.6 442.8
26 12:30 30.6 39 12.22 15.1 13 20 1008.8 0 26.3 26.4 44.5 117.3 119.8 415.5
26 12:20 30.6 40 12.53 15.5 15 20 1008.9 0 26.9 26.9 45.6 120.3 123.5 428.4
26 12:10 29.7 40 11.94 15 7 9 1009.1 0 25.8 26.3 44.0 116.0 117.9 408.6
26 12:00 29.4 43 12.62 15.5 9 20 1009.3 0 27.2 27.4 46.7 123.1 126.5 438.8
26 11:50 29.5 43 12.69 15.6 11 13 1009.5 0 27.3 27.5 46.9 123.6 127.2 441.3
26 11:40 28.8 45 12.79 16 6 7 1009.7 0 27.6 27.8 47.7 125.7 129.6 449.6
26 11:30 29 45 12.93 15.9 9 19 1009.9 0 27.9 28.0 48.1 126.8 131.0 454.5
26 11:20 28.4 47 13.07 16 11 13 1010.2 0 28.2 28.4 49.0 129.2 133.8 464.2
26 11:10 28.6 47 13.21 16.2 11 13 1010.2 0 28.5 28.5 49.4 130.3 135.2 469.1
26 11:00 28.2 52 14.3 17.4 11 17 1010.2 0 30.8 30.4 53.9 142.3 149.8 520.1
26 10:50 27.3 51 13.35 16.3 11 15 1010.4 0 28.9 29.2 50.8 134.0 139.3 483.1
26 10:40 28.5 48 13.42 16.7 13 17 1010.4 0 28.9 28.9 50.3 132.7 138.0 479.0
26 10:30 28 52 14.14 17.2 13 19 1010.4 0 30.5 30.2 53.4 141.0 148.2 514.2
26 10:20 28 51 13.87 16.9 9 13 1010.6 0 29.9 29.8 52.4 138.2 144.7 502.1
26 10:10 27.6 52 13.83 16.9 11 11 1010.6 0 29.8 29.9 52.5 138.5 144.9 502.9
26 10:00 27.5 55 14.55 17.7 9 15 1010.5 0 31.4 31.1 55.4 146.3 154.5 536.3
26 09:50 26.6 56 14.1 17.1 4 9 1010.7 0 30.5 30.6 54.2 143.1 150.4 521.7

Last Refresh: 27-Feb-2021 03:04:04

Most of the information presented on this site is sourced from the Bureau of Meteorology.  Copyright in all material sourced from the Bureau of Meteorology resides with the Commonwealth of Australia.